createdAt,value
2018-05-11T00:00:28.201Z,0.00
2018-05-11T00:01:28.192Z,0.00
2018-05-11T00:02:28.183Z,0.00
2018-05-11T00:03:28.178Z,0.00
2018-05-11T00:04:28.178Z,0.00
2018-05-11T00:05:28.176Z,0.00
2018-05-11T00:06:28.164Z,0.00
2018-05-11T00:07:28.160Z,0.00
2018-05-11T00:08:28.155Z,0.00
2018-05-11T00:09:28.149Z,0.00
2018-05-11T00:10:28.151Z,0.00
2018-05-11T00:11:28.148Z,0.00
2018-05-11T00:12:28.140Z,0.00
2018-05-11T00:13:28.135Z,0.00
2018-05-11T00:14:28.128Z,0.00
2018-05-11T00:15:28.122Z,0.00
2018-05-11T00:16:28.117Z,0.00
2018-05-11T00:17:28.111Z,0.00
2018-05-11T00:18:28.112Z,0.00
2018-05-11T00:19:28.107Z,0.00
2018-05-11T00:20:28.097Z,0.00
2018-05-11T00:21:28.097Z,0.00
2018-05-11T00:22:28.092Z,0.00
2018-05-11T00:23:28.176Z,0.00
2018-05-11T00:24:28.082Z,0.00
2018-05-11T00:25:28.076Z,0.00
2018-05-11T00:26:28.068Z,0.00
2018-05-11T00:27:28.062Z,0.00
2018-05-11T00:28:28.058Z,0.00
2018-05-11T00:29:28.052Z,0.00
2018-05-11T00:30:28.053Z,0.00
2018-05-11T00:31:28.046Z,0.00
2018-05-11T00:32:28.042Z,0.00
2018-05-11T00:33:28.038Z,0.00
2018-05-11T00:34:28.028Z,0.00
2018-05-11T00:35:28.026Z,0.00
2018-05-11T00:36:28.023Z,0.00
2018-05-11T00:37:28.017Z,0.00
2018-05-11T00:38:28.008Z,0.00
2018-05-11T00:39:28.002Z,0.00
2018-05-11T00:40:27.997Z,0.00
2018-05-11T00:41:27.991Z,0.00
2018-05-11T00:42:27.995Z,0.00
2018-05-11T00:43:27.986Z,0.00
2018-05-11T00:44:27.981Z,0.00
2018-05-11T00:45:27.976Z,0.00
2018-05-11T00:46:27.966Z,0.00
2018-05-11T00:47:27.961Z,0.00
2018-05-11T00:48:27.956Z,0.00
2018-05-11T00:49:27.952Z,0.00
2018-05-11T00:50:27.951Z,0.00
2018-05-11T00:51:27.947Z,0.00
2018-05-11T00:52:27.938Z,0.00
2018-05-11T00:53:27.930Z,0.00
2018-05-11T00:54:27.930Z,0.00
2018-05-11T00:55:27.925Z,0.00
2018-05-11T00:56:27.919Z,0.00
2018-05-11T00:57:27.913Z,0.00
2018-05-11T00:58:27.905Z,0.00
2018-05-11T00:59:27.902Z,0.00
2018-05-11T01:00:27.894Z,0.00
2018-05-11T01:01:27.888Z,0.00
2018-05-11T01:02:27.887Z,0.00
2018-05-11T01:03:27.883Z,0.00
2018-05-11T01:04:27.879Z,0.00
2018-05-11T01:05:27.872Z,0.00
2018-05-11T01:06:27.862Z,0.00
2018-05-11T01:07:27.857Z,0.00
2018-05-11T01:08:27.859Z,0.00
2018-05-11T01:09:27.850Z,0.00
2018-05-11T01:10:27.840Z,0.00
2018-05-11T01:11:27.836Z,0.00
2018-05-11T01:12:27.831Z,0.00
2018-05-11T01:13:27.824Z,0.00
2018-05-11T01:14:27.824Z,0.00
2018-05-11T01:15:27.824Z,0.00
2018-05-11T01:16:27.815Z,0.00
2018-05-11T01:17:27.808Z,0.00
2018-05-11T01:18:27.800Z,0.00
2018-05-11T01:19:27.794Z,0.00
2018-05-11T01:20:27.789Z,0.00
2018-05-11T01:21:27.782Z,0.00
2018-05-11T01:22:27.781Z,0.00
2018-05-11T01:23:27.782Z,0.00
2018-05-11T01:24:27.767Z,0.00
2018-05-11T01:25:27.760Z,0.00
2018-05-11T01:26:27.760Z,0.00
2018-05-11T01:27:27.755Z,0.00
2018-05-11T01:28:27.751Z,0.00
2018-05-11T01:29:27.745Z,0.00
2018-05-11T01:30:27.734Z,0.00
2018-05-11T01:31:27.729Z,0.00
2018-05-11T01:32:27.724Z,0.00
2018-05-11T01:33:27.717Z,0.00
2018-05-11T01:34:27.718Z,0.00
2018-05-11T01:35:27.712Z,0.00
2018-05-11T01:36:27.706Z,0.00
2018-05-11T01:37:27.702Z,0.00
2018-05-11T01:38:27.691Z,0.00
2018-05-11T01:39:27.685Z,0.00
2018-05-11T01:40:27.685Z,0.00
2018-05-11T01:41:27.679Z,0.00
2018-05-11T01:42:27.669Z,0.00
2018-05-11T01:43:27.664Z,0.00
2018-05-11T01:44:27.660Z,0.00
2018-05-11T01:45:27.654Z,0.00
2018-05-11T01:46:27.651Z,0.00
2018-05-11T01:47:27.649Z,0.00
2018-05-11T01:48:27.642Z,0.00
2018-05-11T01:49:27.636Z,0.00
2018-05-11T01:50:27.625Z,0.00
2018-05-11T01:51:27.620Z,0.00
2018-05-11T01:52:27.614Z,0.00
2018-05-11T01:53:27.607Z,0.00
2018-05-11T01:54:27.607Z,0.00
2018-05-11T01:55:27.601Z,0.00
2018-05-11T01:56:27.592Z,0.00
2018-05-11T01:57:27.585Z,0.00
2018-05-11T01:58:27.635Z,0.00
2018-05-11T01:59:27.579Z,0.00
2018-05-11T02:00:27.577Z,0.00
2018-05-11T02:01:27.569Z,0.00
2018-05-11T02:02:27.560Z,0.00
2018-05-11T02:03:27.552Z,0.00
2018-05-11T02:04:27.550Z,0.00
2018-05-11T02:05:27.541Z,0.00
2018-05-11T02:06:27.541Z,0.00
2018-05-11T02:07:27.535Z,0.00
2018-05-11T02:08:27.529Z,0.00
2018-05-11T02:09:27.522Z,0.00
2018-05-11T02:10:27.512Z,0.00
2018-05-11T02:11:27.507Z,0.00
2018-05-11T02:12:27.506Z,0.00
2018-05-11T02:13:27.499Z,0.00
2018-05-11T02:14:27.489Z,0.00
2018-05-11T02:15:27.485Z,0.00
2018-05-11T02:16:27.479Z,0.00
2018-05-11T02:17:27.472Z,0.00
2018-05-11T02:18:27.504Z,0.00
2018-05-11T02:19:27.470Z,0.00
2018-05-11T02:20:27.459Z,0.00
2018-05-11T02:21:27.454Z,0.00
2018-05-11T02:22:27.443Z,0.00
2018-05-11T02:23:27.438Z,0.00
2018-05-11T02:24:27.435Z,0.00
2018-05-11T02:25:27.425Z,0.00
2018-05-11T02:26:27.425Z,0.00
2018-05-11T02:27:27.419Z,0.00
2018-05-11T02:28:27.409Z,0.00
2018-05-11T02:29:27.402Z,0.00
2018-05-11T02:30:27.406Z,0.00
2018-05-11T02:31:27.400Z,0.00
2018-05-11T02:32:27.391Z,0.00
2018-05-11T02:33:27.382Z,0.00
2018-05-11T02:34:27.373Z,0.00
2018-05-11T02:35:27.368Z,0.00
2018-05-11T02:36:27.363Z,0.00
2018-05-11T02:37:27.355Z,0.00
2018-05-11T02:38:27.358Z,0.00
2018-05-11T02:39:27.349Z,0.00
2018-05-11T02:40:27.344Z,0.00
2018-05-11T02:41:27.338Z,0.00
2018-05-11T02:42:27.327Z,0.00
2018-05-11T02:43:27.321Z,0.00
2018-05-11T02:44:27.320Z,0.00
2018-05-11T02:45:27.314Z,0.00
2018-05-11T02:46:27.303Z,0.00
2018-05-11T02:47:27.302Z,0.00
2018-05-11T02:48:27.291Z,0.00
2018-05-11T02:49:27.285Z,0.00
2018-05-11T02:50:27.283Z,0.00
2018-05-11T02:51:27.277Z,0.00
2018-05-11T02:52:27.271Z,0.00
2018-05-11T02:53:27.265Z,0.00
2018-05-11T02:54:27.254Z,0.00
2018-05-11T02:55:27.248Z,0.00
2018-05-11T02:56:27.243Z,0.00
2018-05-11T02:57:27.239Z,0.00
2018-05-11T02:58:27.238Z,0.00
2018-05-11T02:59:27.229Z,0.00
2018-05-11T03:00:27.219Z,0.00
2018-05-11T03:01:27.213Z,0.00
2018-05-11T03:02:27.212Z,0.00
2018-05-11T03:03:27.206Z,0.00
2018-05-11T03:04:27.200Z,0.00
2018-05-11T03:05:27.192Z,0.00
2018-05-11T03:06:27.183Z,0.00
2018-05-11T03:07:27.175Z,0.00
2018-05-11T03:08:27.171Z,0.00
2018-05-11T03:09:27.164Z,0.00
2018-05-11T03:10:27.253Z,0.00
2018-05-11T03:11:27.156Z,0.00
2018-05-11T03:12:27.150Z,0.00
2018-05-11T03:13:27.215Z,0.00
2018-05-11T03:14:27.133Z,0.00
2018-05-11T03:15:27.128Z,0.00
2018-05-11T03:16:27.127Z,0.00
2018-05-11T03:17:27.120Z,0.00
2018-05-11T03:18:27.308Z,0.00
2018-05-11T03:19:27.103Z,0.00
2018-05-11T03:20:27.097Z,0.00
2018-05-11T03:21:27.090Z,0.00
2018-05-11T03:22:27.090Z,0.00
2018-05-11T03:23:27.083Z,0.00
2018-05-11T03:24:27.076Z,0.00
2018-05-11T03:25:27.069Z,0.00
2018-05-11T03:26:27.059Z,0.00
2018-05-11T03:27:27.053Z,0.00
2018-05-11T03:28:27.048Z,0.00
2018-05-11T03:29:27.040Z,0.00
2018-05-11T03:30:27.041Z,0.00
2018-05-11T03:31:27.036Z,0.00
2018-05-11T03:32:27.023Z,0.00
2018-05-11T03:33:27.016Z,0.00
2018-05-11T03:34:27.014Z,0.00
2018-05-11T03:35:27.008Z,0.00
2018-05-11T03:36:27.003Z,0.00
2018-05-11T03:37:26.998Z,0.00
2018-05-11T03:38:26.984Z,0.00
2018-05-11T03:39:26.980Z,5.63
2018-05-11T03:40:26.973Z,5.63
2018-05-11T03:41:26.965Z,5.63
2018-05-11T03:42:26.965Z,5.63
2018-05-11T03:43:26.957Z,5.63
2018-05-11T03:44:26.952Z,5.63
2018-05-11T03:45:26.945Z,5.63
2018-05-11T03:46:26.935Z,11.25
2018-05-11T03:47:26.927Z,11.25
2018-05-11T03:48:26.928Z,11.25
2018-05-11T03:49:26.919Z,11.25
2018-05-11T03:50:26.910Z,11.25
2018-05-11T03:51:26.903Z,16.88
2018-05-11T03:52:26.896Z,16.88
2018-05-11T03:53:26.888Z,16.88
2018-05-11T03:54:26.886Z,16.88
2018-05-11T03:55:26.880Z,22.50
2018-05-11T03:56:26.875Z,22.50
2018-05-11T03:57:26.868Z,22.50
2018-05-11T03:58:26.856Z,28.13
2018-05-11T03:59:26.853Z,28.13
2018-05-11T04:00:26.844Z,28.13
2018-05-11T04:01:26.837Z,33.75
2018-05-11T04:02:26.836Z,33.75
2018-05-11T04:03:26.831Z,33.75
2018-05-11T04:04:26.823Z,39.38
2018-05-11T04:05:26.813Z,39.38
2018-05-11T04:06:26.811Z,39.38
2018-05-11T04:07:26.806Z,45.00
2018-05-11T04:08:26.797Z,45.00
2018-05-11T04:09:26.790Z,50.63
2018-05-11T04:10:26.779Z,50.63
2018-05-11T04:11:26.774Z,56.25
2018-05-11T04:12:26.769Z,56.25
2018-05-11T04:13:26.763Z,61.88
2018-05-11T04:14:26.758Z,61.88
2018-05-11T04:15:26.752Z,61.88
2018-05-11T04:16:26.748Z,67.50
2018-05-11T04:17:26.740Z,67.50
2018-05-11T04:18:26.730Z,73.13
2018-05-11T04:19:26.723Z,73.13
2018-05-11T04:20:26.722Z,78.75
2018-05-11T04:21:26.714Z,78.75
2018-05-11T04:22:26.704Z,78.75
2018-05-11T04:23:26.698Z,84.38
2018-05-11T04:24:26.692Z,84.38
2018-05-11T04:25:26.684Z,90.00
2018-05-11T04:26:26.686Z,95.63
2018-05-11T04:27:26.683Z,95.63
2018-05-11T04:28:26.672Z,101.25
2018-05-11T04:29:26.664Z,101.25
2018-05-11T04:30:26.655Z,106.88
2018-05-11T04:31:26.648Z,106.88
2018-05-11T04:32:26.642Z,112.50
2018-05-11T04:33:26.635Z,118.13
2018-05-11T04:34:26.635Z,112.50
2018-05-11T04:35:26.628Z,118.13
2018-05-11T04:36:26.623Z,146.25
2018-05-11T04:37:26.610Z,157.50
2018-05-11T04:38:26.609Z,168.75
2018-05-11T04:39:26.603Z,174.38
2018-05-11T04:40:26.598Z,180.00
2018-05-11T04:41:26.594Z,191.25
2018-05-11T04:42:26.585Z,202.50
2018-05-11T04:43:26.575Z,213.75
2018-05-11T04:44:26.569Z,225.00
2018-05-11T04:45:26.562Z,241.88
2018-05-11T04:46:26.563Z,247.50
2018-05-11T04:47:26.557Z,258.75
2018-05-11T04:48:26.551Z,281.25
2018-05-11T04:49:26.545Z,292.50
2018-05-11T04:50:26.541Z,309.38
2018-05-11T04:51:26.531Z,320.63
2018-05-11T04:52:26.529Z,320.63
2018-05-11T04:53:26.526Z,326.25
2018-05-11T04:54:26.515Z,343.13
2018-05-11T04:55:26.510Z,360.00
2018-05-11T04:56:26.508Z,376.88
2018-05-11T04:57:26.501Z,393.75
2018-05-11T04:58:26.516Z,399.38
2018-05-11T04:59:26.499Z,405.00
2018-05-11T05:00:26.495Z,421.88
2018-05-11T05:01:26.490Z,438.75
2018-05-11T05:02:26.482Z,450.00
2018-05-11T05:03:26.477Z,461.25
2018-05-11T05:04:26.474Z,455.63
2018-05-11T05:05:26.470Z,433.13
2018-05-11T05:06:26.471Z,416.25
2018-05-11T05:07:26.468Z,466.88
2018-05-11T05:08:26.461Z,528.75
2018-05-11T05:09:26.458Z,528.75
2018-05-11T05:10:26.460Z,405.00
2018-05-11T05:11:26.458Z,371.25
2018-05-11T05:12:26.504Z,371.25
2018-05-11T05:13:26.456Z,360.00
2018-05-11T05:14:26.445Z,354.38
2018-05-11T05:15:26.446Z,393.75
2018-05-11T05:16:26.441Z,433.13
2018-05-11T05:17:26.437Z,478.13
2018-05-11T05:18:26.441Z,528.75
2018-05-11T05:19:26.441Z,596.25
2018-05-11T05:20:26.436Z,652.50
2018-05-11T05:21:26.434Z,601.88
2018-05-11T05:22:26.428Z,562.50
2018-05-11T05:23:26.426Z,669.38
2018-05-11T05:24:26.429Z,759.38
2018-05-11T05:25:26.426Z,793.13
2018-05-11T05:26:26.420Z,815.63
2018-05-11T05:27:26.420Z,826.88
2018-05-11T05:28:26.417Z,781.88
2018-05-11T05:29:26.474Z,675.00
2018-05-11T05:30:26.420Z,613.13
2018-05-11T05:31:26.420Z,714.38
2018-05-11T05:32:26.418Z,804.38
2018-05-11T05:33:26.418Z,855.00
2018-05-11T05:34:26.412Z,753.75
2018-05-11T05:35:26.413Z,731.25
2018-05-11T05:36:26.412Z,798.75
2018-05-11T05:37:26.411Z,804.38
2018-05-11T05:38:26.416Z,810.00
2018-05-11T05:39:26.420Z,720.00
2018-05-11T05:40:26.413Z,641.25
2018-05-11T05:41:26.411Z,573.75
2018-05-11T05:42:26.417Z,528.75
2018-05-11T05:43:26.418Z,545.63
2018-05-11T05:44:26.419Z,590.63
2018-05-11T05:45:26.417Z,900.00
2018-05-11T05:46:26.423Z,1018.13
2018-05-11T05:47:26.415Z,1057.50
2018-05-11T05:48:26.416Z,1080.00
2018-05-11T05:49:26.420Z,1108.13
2018-05-11T05:50:26.422Z,1113.75
2018-05-11T05:51:26.423Z,1096.88
2018-05-11T05:52:26.424Z,1113.75
2018-05-11T05:53:26.427Z,1080.00
2018-05-11T05:54:26.425Z,1057.50
2018-05-11T05:55:26.425Z,928.13
2018-05-11T05:56:26.436Z,1181.25
2018-05-11T05:57:26.431Z,1305.00
2018-05-11T05:58:26.494Z,1333.13
2018-05-11T05:59:26.431Z,1344.38
2018-05-11T06:00:26.439Z,1355.63
2018-05-11T06:01:26.434Z,905.63
2018-05-11T06:02:26.513Z,697.50
2018-05-11T06:03:26.444Z,562.50
2018-05-11T06:04:26.447Z,506.25
2018-05-11T06:05:26.449Z,495.00
2018-05-11T06:06:26.448Z,506.25
2018-05-11T06:07:26.451Z,534.38
2018-05-11T06:08:26.455Z,568.13
2018-05-11T06:09:26.456Z,613.13
2018-05-11T06:10:26.463Z,669.38
2018-05-11T06:11:26.468Z,697.50
2018-05-11T06:12:26.465Z,821.25
2018-05-11T06:13:26.466Z,697.50
2018-05-11T06:14:26.475Z,624.38
2018-05-11T06:15:26.477Z,607.50
2018-05-11T06:16:26.479Z,568.13
2018-05-11T06:17:26.480Z,551.25
2018-05-11T06:18:26.479Z,556.88
2018-05-11T06:19:26.481Z,590.63
2018-05-11T06:20:26.483Z,652.50
2018-05-11T06:21:26.485Z,736.88
2018-05-11T06:22:26.491Z,770.63
2018-05-11T06:23:26.499Z,759.38
2018-05-11T06:24:26.504Z,776.25
2018-05-11T06:25:26.498Z,720.00
2018-05-11T06:26:26.495Z,691.88
2018-05-11T06:27:26.497Z,663.75
2018-05-11T06:28:26.504Z,967.50
2018-05-11T06:29:26.507Z,911.25
2018-05-11T06:30:26.503Z,984.38
2018-05-11T06:31:26.506Z,995.63
2018-05-11T06:32:26.511Z,1057.50
2018-05-11T06:33:26.508Z,1091.25
2018-05-11T06:34:26.551Z,1068.75
2018-05-11T06:35:26.518Z,1068.75
2018-05-11T06:36:26.526Z,973.13
2018-05-11T06:37:26.523Z,1119.38
2018-05-11T06:38:26.525Z,1108.13
2018-05-11T06:39:26.526Z,1063.13
2018-05-11T06:40:26.554Z,1243.13
2018-05-11T06:41:26.533Z,1231.88
2018-05-11T06:42:26.542Z,1220.63
2018-05-11T06:43:26.545Z,1209.38
2018-05-11T06:44:26.550Z,1248.75
2018-05-11T06:45:26.548Z,1243.13
2018-05-11T06:46:26.558Z,1248.75
2018-05-11T06:47:26.562Z,1271.25
2018-05-11T06:48:26.568Z,1299.38
2018-05-11T06:49:26.572Z,1254.38
2018-05-11T06:50:26.572Z,1350.00
2018-05-11T06:51:26.576Z,1310.63
2018-05-11T06:52:26.581Z,1288.13
2018-05-11T06:53:26.585Z,1288.13
2018-05-11T06:54:26.594Z,1338.75
2018-05-11T06:55:26.602Z,1372.50
2018-05-11T06:56:26.605Z,1400.63
2018-05-11T06:57:26.610Z,1440.00
2018-05-11T06:58:26.612Z,1282.50
2018-05-11T06:59:26.618Z,1428.75
2018-05-11T07:00:26.628Z,1479.38
2018-05-11T07:01:26.689Z,1451.25
2018-05-11T07:02:26.634Z,1462.50
2018-05-11T07:03:26.641Z,1485.00
2018-05-11T07:04:26.647Z,1136.25
2018-05-11T07:05:26.658Z,1580.63
2018-05-11T07:06:26.664Z,1591.88
2018-05-11T07:07:26.670Z,1575.00
2018-05-11T07:08:26.682Z,1569.38
2018-05-11T07:09:26.681Z,1575.00
2018-05-11T07:10:26.682Z,1614.38
2018-05-11T07:11:26.689Z,1181.25
2018-05-11T07:12:26.695Z,1215.00
2018-05-11T07:13:26.701Z,1681.88
2018-05-11T07:14:26.713Z,1715.63
2018-05-11T07:15:26.719Z,1732.50
2018-05-11T07:16:26.723Z,1726.88
2018-05-11T07:17:26.728Z,1732.50
2018-05-11T07:18:26.740Z,1726.88
2018-05-11T07:19:26.766Z,1738.13
2018-05-11T07:20:26.756Z,1800.00
2018-05-11T07:21:26.766Z,1805.63
2018-05-11T07:22:26.765Z,1850.63
2018-05-11T07:23:26.777Z,1991.25
2018-05-11T07:24:26.782Z,1957.50
2018-05-11T07:25:26.789Z,1951.88
2018-05-11T07:26:26.802Z,2053.13
2018-05-11T07:27:26.811Z,1996.88
2018-05-11T07:28:26.819Z,2036.25
2018-05-11T07:29:26.827Z,2086.88
2018-05-11T07:30:26.831Z,2013.75
2018-05-11T07:31:26.840Z,1749.38
2018-05-11T07:32:26.853Z,1513.13
2018-05-11T07:33:26.863Z,1361.25
2018-05-11T07:34:26.866Z,1305.00
2018-05-11T07:35:26.875Z,1777.50
2018-05-11T07:36:26.886Z,1822.50
2018-05-11T07:37:26.896Z,1923.75
2018-05-11T07:38:26.907Z,922.50
2018-05-11T07:39:26.913Z,793.13
2018-05-11T07:40:26.920Z,753.75
2018-05-11T07:41:26.925Z,731.25
2018-05-11T07:42:26.939Z,753.75
2018-05-11T07:43:27.109Z,742.50
2018-05-11T07:44:26.957Z,753.75
2018-05-11T07:45:26.960Z,736.88
2018-05-11T07:46:26.964Z,714.38
2018-05-11T07:47:26.975Z,776.25
2018-05-11T07:48:26.981Z,1175.63
2018-05-11T07:49:26.989Z,945.00
2018-05-11T07:50:26.990Z,939.38
2018-05-11T07:51:26.998Z,911.25
2018-05-11T07:52:27.002Z,984.38
2018-05-11T07:53:27.010Z,1085.63
2018-05-11T07:54:27.019Z,1035.00
2018-05-11T07:55:27.025Z,1108.13
2018-05-11T07:56:27.029Z,1108.13
2018-05-11T07:57:27.035Z,1051.88
2018-05-11T07:58:27.036Z,1130.63
2018-05-11T07:59:27.042Z,1575.00
2018-05-11T08:00:27.046Z,4190.63
2018-05-11T08:01:27.050Z,1243.13
2018-05-11T08:02:27.060Z,1158.75
2018-05-11T08:03:27.067Z,1136.25
2018-05-11T08:04:27.071Z,956.25
2018-05-11T08:05:27.072Z,826.88
2018-05-11T08:06:27.081Z,832.50
2018-05-11T08:07:27.086Z,956.25
2018-05-11T08:08:27.095Z,2941.88
2018-05-11T08:09:27.098Z,4179.38
2018-05-11T08:10:27.098Z,4162.50
2018-05-11T08:11:27.103Z,3931.88
2018-05-11T08:12:27.110Z,4269.38
2018-05-11T08:13:27.113Z,1378.13
2018-05-11T08:14:27.247Z,1305.00
2018-05-11T08:15:27.130Z,1400.63
2018-05-11T08:16:27.138Z,2002.50
2018-05-11T08:17:27.142Z,3836.25
2018-05-11T08:18:27.143Z,4151.25
2018-05-11T08:19:27.150Z,4201.88
2018-05-11T08:20:27.161Z,4111.88
2018-05-11T08:21:27.281Z,1080.00
2018-05-11T08:22:27.172Z,1080.00
2018-05-11T08:23:27.181Z,1113.75
2018-05-11T08:24:27.188Z,1125.00
2018-05-11T08:25:27.195Z,1147.50
2018-05-11T08:26:27.207Z,1513.13
2018-05-11T08:27:27.215Z,3307.50
2018-05-11T08:28:27.223Z,2486.25
2018-05-11T08:29:27.232Z,2671.88
2018-05-11T08:30:27.232Z,1378.13
2018-05-11T08:31:27.240Z,1490.63
2018-05-11T08:32:27.252Z,1288.13
2018-05-11T08:33:27.255Z,1170.00
2018-05-11T08:34:27.270Z,1035.00
2018-05-11T08:35:27.275Z,961.88
2018-05-11T08:36:27.280Z,911.25
2018-05-11T08:37:27.286Z,928.13
2018-05-11T08:38:27.298Z,1006.88
2018-05-11T08:39:27.306Z,1119.38
2018-05-11T08:40:27.315Z,1344.38
2018-05-11T08:41:27.321Z,2233.13
2018-05-11T08:42:27.325Z,3521.25
2018-05-11T08:43:27.333Z,3594.38
2018-05-11T08:44:27.338Z,3791.25
2018-05-11T08:45:27.343Z,3965.63
2018-05-11T08:46:27.398Z,3695.63
2018-05-11T08:47:27.364Z,3605.63
2018-05-11T08:48:27.374Z,1957.50
2018-05-11T08:49:27.381Z,3611.25
2018-05-11T08:50:27.383Z,3099.38
2018-05-11T08:51:27.393Z,3825.00
2018-05-11T08:52:27.421Z,3476.25
2018-05-11T08:53:27.416Z,1884.38
2018-05-11T08:54:27.420Z,1693.13
2018-05-11T08:55:27.431Z,1923.75
2018-05-11T08:56:27.441Z,1726.88
2018-05-11T08:57:27.450Z,1496.25
2018-05-11T08:58:27.466Z,2694.38
2018-05-11T08:59:27.476Z,3853.13
2018-05-11T09:00:27.487Z,3931.88
2018-05-11T09:01:27.495Z,3971.25
2018-05-11T09:02:27.503Z,4140.00
2018-05-11T09:03:27.514Z,4162.50
2018-05-11T09:04:27.525Z,4314.38
2018-05-11T09:05:27.536Z,4331.25
2018-05-11T09:06:27.554Z,4320.00
2018-05-11T09:07:27.566Z,4134.38
2018-05-11T09:08:27.573Z,3898.13
2018-05-11T09:09:27.584Z,3633.75
2018-05-11T09:10:27.604Z,3650.63
2018-05-11T09:11:27.616Z,3639.38
2018-05-11T09:12:27.630Z,3639.38
2018-05-11T09:13:27.642Z,3611.25
2018-05-11T09:14:27.652Z,3622.50
2018-05-11T09:15:27.665Z,3431.25
2018-05-11T09:16:27.679Z,3155.63
2018-05-11T09:17:27.692Z,1411.88
2018-05-11T09:18:27.711Z,1490.63
2018-05-11T09:19:27.724Z,1366.88
2018-05-11T09:20:27.739Z,2964.38
2018-05-11T09:21:27.754Z,3245.63
2018-05-11T09:22:27.760Z,1991.25
2018-05-11T09:23:27.772Z,1175.63
2018-05-11T09:24:27.791Z,1153.13
2018-05-11T09:25:27.802Z,1192.50
2018-05-11T09:26:27.810Z,1299.38
2018-05-11T09:27:27.823Z,1530.00
2018-05-11T09:28:27.838Z,2632.50
2018-05-11T09:29:27.847Z,3498.75
2018-05-11T09:30:27.863Z,2593.13
2018-05-11T09:31:27.876Z,3526.88
2018-05-11T09:32:27.887Z,3583.13
2018-05-11T09:33:27.899Z,2373.75
2018-05-11T09:34:27.908Z,2970.00
2018-05-11T09:35:27.920Z,3352.50
2018-05-11T09:36:27.933Z,3504.38
2018-05-11T09:37:27.952Z,3588.75
2018-05-11T09:38:27.962Z,3526.88
2018-05-11T09:39:28.025Z,3571.88
2018-05-11T09:40:27.985Z,1344.38
2018-05-11T09:41:27.997Z,3481.88
2018-05-11T09:42:28.017Z,1198.13
2018-05-11T09:43:28.032Z,1125.00
2018-05-11T09:44:28.044Z,1063.13
2018-05-11T09:45:28.056Z,1108.13
2018-05-11T09:46:28.064Z,1282.50
2018-05-11T09:47:28.077Z,1788.75
2018-05-11T09:48:28.090Z,3307.50
2018-05-11T09:49:28.143Z,1721.25
2018-05-11T09:50:28.120Z,1383.75
2018-05-11T09:51:28.132Z,1535.63
2018-05-11T09:52:28.146Z,1372.50
2018-05-11T09:53:28.241Z,1125.00
2018-05-11T09:54:28.161Z,1254.38
2018-05-11T09:55:28.173Z,1788.75
2018-05-11T09:56:28.188Z,3121.88
2018-05-11T09:57:28.199Z,3290.63
2018-05-11T09:58:28.206Z,3183.75
2018-05-11T09:59:28.215Z,3043.13
2018-05-11T10:00:28.230Z,3048.75
2018-05-11T10:01:28.244Z,3026.25
2018-05-11T10:02:28.252Z,2930.63
2018-05-11T10:03:28.265Z,2880.00
2018-05-11T10:04:28.356Z,2885.63
2018-05-11T10:05:28.287Z,2874.38
2018-05-11T10:06:28.294Z,2874.38
2018-05-11T10:07:28.306Z,2823.75
2018-05-11T10:08:28.322Z,2767.50
2018-05-11T10:09:28.332Z,2767.50
2018-05-11T10:10:28.349Z,2716.88
2018-05-11T10:11:28.361Z,2694.38
2018-05-11T10:12:28.369Z,2683.13
2018-05-11T10:13:28.383Z,2683.13
2018-05-11T10:14:28.401Z,2733.75
2018-05-11T10:15:28.415Z,2767.50
2018-05-11T10:16:28.432Z,2812.50
2018-05-11T10:17:28.444Z,2941.88
2018-05-11T10:18:28.453Z,3954.38
2018-05-11T10:19:28.467Z,4995.00
2018-05-11T10:20:28.483Z,4753.13
2018-05-11T10:21:28.497Z,4500.00
2018-05-11T10:22:28.516Z,4595.63
2018-05-11T10:23:28.535Z,4781.25
2018-05-11T10:24:28.547Z,4983.75
2018-05-11T10:25:28.560Z,4826.25
2018-05-11T10:26:28.571Z,4741.88
2018-05-11T10:27:28.591Z,4831.88
2018-05-11T10:28:28.607Z,3571.88
2018-05-11T10:29:28.626Z,916.88
2018-05-11T10:30:28.636Z,843.75
2018-05-11T10:31:28.648Z,933.75
2018-05-11T10:32:28.665Z,821.25
2018-05-11T10:33:28.684Z,781.88
2018-05-11T10:34:28.780Z,753.75
2018-05-11T10:35:28.716Z,765.00
2018-05-11T10:36:28.730Z,838.13
2018-05-11T10:37:28.742Z,922.50
2018-05-11T10:38:28.752Z,2790.00
2018-05-11T10:39:28.765Z,4736.25
2018-05-11T10:40:28.777Z,4820.63
2018-05-11T10:41:28.790Z,4916.25
2018-05-11T10:42:28.824Z,5040.00
2018-05-11T10:43:28.821Z,4640.63
2018-05-11T10:44:28.827Z,1327.50
2018-05-11T10:45:28.836Z,3560.63
2018-05-11T10:46:28.854Z,4764.38
2018-05-11T10:47:28.865Z,4736.25
2018-05-11T10:48:28.930Z,4775.63
2018-05-11T10:49:28.888Z,4966.88
2018-05-11T10:50:28.896Z,5101.88
2018-05-11T10:51:28.909Z,4837.50
2018-05-11T10:52:28.921Z,4893.75
2018-05-11T10:53:28.933Z,4950.00
2018-05-11T10:54:28.950Z,4528.13
2018-05-11T10:55:28.963Z,4089.38
2018-05-11T10:56:28.977Z,4196.25
2018-05-11T10:57:28.988Z,4567.50
2018-05-11T10:58:29.000Z,1035.00
2018-05-11T10:59:29.011Z,888.75
2018-05-11T11:00:29.029Z,1620.00
2018-05-11T11:01:29.043Z,2160.00
2018-05-11T11:02:29.123Z,1276.88
2018-05-11T11:03:29.063Z,4134.38
2018-05-11T11:04:29.076Z,4803.75
2018-05-11T11:05:29.088Z,4820.63
2018-05-11T11:06:29.105Z,4792.50
2018-05-11T11:07:29.120Z,4865.63
2018-05-11T11:08:29.130Z,4545.00
2018-05-11T11:09:29.141Z,4488.75
2018-05-11T11:10:29.151Z,3903.75
2018-05-11T11:11:29.163Z,2137.50
2018-05-11T11:12:29.175Z,2593.13
2018-05-11T11:13:29.194Z,2238.75
2018-05-11T11:14:29.203Z,2446.88
2018-05-11T11:15:29.217Z,4078.13
2018-05-11T11:16:29.225Z,1749.38
2018-05-11T11:17:29.236Z,3566.25
2018-05-11T11:18:29.252Z,1743.75
2018-05-11T11:19:29.263Z,1102.50
2018-05-11T11:20:29.274Z,1029.38
2018-05-11T11:21:29.285Z,1068.75
2018-05-11T11:22:29.291Z,1068.75
2018-05-11T11:23:29.311Z,1096.88
2018-05-11T11:24:29.312Z,1006.88
2018-05-11T11:25:29.324Z,1018.13
2018-05-11T11:26:29.336Z,973.13
2018-05-11T11:27:29.346Z,967.50
2018-05-11T11:28:29.358Z,939.38
2018-05-11T11:29:29.367Z,1001.25
2018-05-11T11:30:29.369Z,1040.63
2018-05-11T11:31:29.381Z,1091.25
2018-05-11T11:32:29.393Z,1125.00
2018-05-11T11:33:29.400Z,1136.25
2018-05-11T11:34:29.469Z,1136.25
2018-05-11T11:35:29.422Z,1051.88
2018-05-11T11:36:29.420Z,956.25
2018-05-11T11:37:29.427Z,905.63
2018-05-11T11:38:29.440Z,905.63
2018-05-11T11:39:29.446Z,933.75
2018-05-11T11:40:29.473Z,933.75
2018-05-11T11:41:29.460Z,939.38
2018-05-11T11:42:29.465Z,894.38
2018-05-11T11:43:29.470Z,984.38
2018-05-11T11:44:29.487Z,1006.88
2018-05-11T11:45:29.483Z,978.75
2018-05-11T11:46:29.494Z,956.25
2018-05-11T11:47:29.512Z,956.25
2018-05-11T11:48:29.502Z,900.00
2018-05-11T11:49:29.507Z,843.75
2018-05-11T11:50:29.519Z,849.38
2018-05-11T11:51:29.524Z,826.88
2018-05-11T11:52:29.531Z,832.50
2018-05-11T11:53:29.535Z,815.63
2018-05-11T11:54:29.538Z,798.75
2018-05-11T11:55:29.543Z,798.75
2018-05-11T11:56:29.646Z,776.25
2018-05-11T11:57:29.552Z,770.63
2018-05-11T11:58:29.563Z,765.00
2018-05-11T11:59:29.568Z,770.63
2018-05-11T12:00:29.574Z,793.13
2018-05-11T12:01:29.580Z,821.25
2018-05-11T12:02:29.579Z,832.50
2018-05-11T12:03:29.584Z,821.25
2018-05-11T12:04:29.594Z,742.50
2018-05-11T12:05:29.599Z,714.38
2018-05-11T12:06:29.597Z,697.50
2018-05-11T12:07:29.602Z,669.38
2018-05-11T12:08:29.607Z,652.50
2018-05-11T12:09:29.611Z,658.13
2018-05-11T12:10:29.620Z,736.88
2018-05-11T12:11:29.626Z,838.13
2018-05-11T12:12:29.630Z,843.75
2018-05-11T12:13:29.634Z,815.63
2018-05-11T12:14:29.634Z,804.38
2018-05-11T12:15:29.690Z,680.63
2018-05-11T12:16:29.645Z,607.50
2018-05-11T12:17:29.649Z,551.25
2018-05-11T12:18:29.707Z,556.88
2018-05-11T12:19:29.663Z,585.00
2018-05-11T12:20:29.663Z,545.63
2018-05-11T12:21:29.668Z,540.00
2018-05-11T12:22:29.677Z,585.00
2018-05-11T12:23:29.681Z,624.38
2018-05-11T12:24:29.684Z,624.38
2018-05-11T12:25:29.688Z,624.38
2018-05-11T12:26:29.688Z,613.13
2018-05-11T12:27:29.692Z,624.38
2018-05-11T12:28:29.696Z,613.13
2018-05-11T12:29:29.699Z,624.38
2018-05-11T12:30:29.708Z,568.13
2018-05-11T12:31:29.713Z,511.88
2018-05-11T12:32:29.717Z,523.13
2018-05-11T12:33:29.720Z,573.75
2018-05-11T12:34:29.718Z,556.88
2018-05-11T12:35:29.723Z,534.38